Time;durP1;ratioP1;P1;durP2;ratioP2;P2;SDS_P1;SDS_P2;PMS_P1;PMS_P2;Temp;Humidity;BMP_temperature;BMP_pressure;BME280_temperature;BME280_humidity;BME280_pressure;Samples;Min_cycle;Max_cycle;Signal;HPM_P1;HPM_P2
2023/05/20 00:00:25;;;;;;;14.10;4.50;;;;;;;;;;5094442;28;20148;-69
2023/05/20 00:02:51;;;;;;;12.88;4.53;;;;;;;;;;5094568;28;20388;-69
2023/05/20 00:05:17;;;;;;;11.38;4.65;;;;;;;;;;5094245;28;20245;-69
2023/05/20 00:07:43;;;;;;;9.50;4.32;;;;;;;;;;5093297;28;20496;-69
2023/05/20 00:10:10;;;;;;;12.88;4.43;;;;;;;;;;5094383;28;20065;-69
2023/05/20 00:12:37;;;;;;;11.48;4.15;;;;;;;;;;5111731;27;20122;-69
2023/05/20 00:15:04;;;;;;;17.35;4.88;;;;;;;;;;5094175;28;20047;-69
2023/05/20 00:17:30;;;;;;;14.85;5.00;;;;;;;;;;5094143;28;20472;-69
2023/05/20 00:19:56;;;;;;;16.13;5.20;;;;;;;;;;5094209;28;20036;-69
2023/05/20 00:22:22;;;;;;;9.32;4.20;;;11.90;99.90;;;;;;5093933;28;20047;-69
2023/05/20 00:24:48;;;;;;;14.43;4.25;;;;;;;;;;5093949;28;20032;-69
2023/05/20 00:27:14;;;;;;;15.00;4.90;;;;;;;;;;5076939;28;20046;-69
2023/05/20 00:29:40;;;;;;;18.38;4.65;;;;;;;;;;5094023;28;20098;-69
2023/05/20 00:32:07;;;;;;;13.80;4.95;;;;;;;;;;5093980;28;20050;-69
2023/05/20 00:34:33;;;;;;;15.32;4.63;;;;;;;;;;5093951;28;20393;-69
2023/05/20 00:36:59;;;;;;;12.52;4.72;;;;;;;;;;5093707;28;20036;-69
2023/05/20 00:39:25;;;;;;;18.45;4.70;;;;;;;;;;5076707;28;20044;-69
2023/05/20 00:41:51;;;;;;;8.75;4.32;;;;;;;;;;5076759;28;20043;-69
2023/05/20 00:44:17;;;;;;;15.38;4.60;;;;;;;;;;5093526;28;20066;-69
2023/05/20 00:46:44;;;;;;;16.55;5.50;;;11.90;99.90;;;;;;5093655;28;20115;-69
2023/05/20 00:49:11;;;;;;;8.77;4.35;;;;;;;;;;5093675;28;20075;-69
2023/05/20 00:51:37;;;;;;;13.15;5.70;;;;;;;;;;5127684;27;20425;-69
2023/05/20 00:54:03;;;;;;;14.02;4.75;;;;;;;;;;5093356;28;20119;-69
2023/05/20 00:56:29;;;;;;;17.10;4.85;;;;;;;;;;5093539;28;20151;-69
2023/05/20 00:58:55;;;;;;;12.70;4.72;;;;;;;;;;5093077;28;20036;-69
2023/05/20 01:01:21;;;;;;;17.52;4.82;;;;;;;;;;5093104;28;20400;-69
2023/05/20 01:03:47;;;;;;;12.00;5.47;;;;;;;;;;5093395;28;20032;-69
2023/05/20 01:06:14;;;;;;;15.40;4.75;;;;;;;;;;5076170;28;20052;-69
2023/05/20 01:08:40;;;;;;;11.63;5.18;;;;;;;;;;5093403;28;20040;-69
2023/05/20 01:11:10;;;;;;;9.85;4.53;;;11.90;99.90;;;;;;5093143;28;20051;-69
2023/05/20 01:13:39;;;;;;;11.70;5.00;;;;;;;;;;5093258;28;20391;-69
2023/05/20 01:16:07;;;;;;;16.80;5.25;;;11.50;99.90;;;;;;5093242;28;20122;-69
2023/05/20 01:18:33;;;;;;;15.30;5.13;;;;;;;;;;5092840;28;20124;-69
2023/05/20 01:21:02;;;;;;;16.23;4.88;;;11.90;99.90;;;;;;5092742;28;20044;-69
2023/05/20 01:23:41;;;;;;;13.48;5.13;;;11.70;99.90;;;;;;5092635;28;20039;-69
2023/05/20 01:26:07;;;;;;;12.73;5.07;;;;;;;;;;5092714;28;20496;-69
2023/05/20 01:28:34;;;;;;;16.55;5.38;;;;;;;;;;5092657;28;20124;-69
2023/05/20 01:31:03;;;;;;;17.70;5.82;;;11.70;99.90;;;;;;5092567;28;20047;-69
2023/05/20 01:33:30;;;;;;;14.82;5.95;;;11.50;99.90;;;;;;5092589;28;20043;-69
2023/05/20 01:35:58;;;;;;;16.35;5.43;;;11.70;99.90;;;;;;5092994;28;20047;-69
2023/05/20 01:38:24;;;;;;;19.25;6.72;;;11.60;99.90;;;;;;5075518;28;20043;-69
2023/05/20 01:40:51;;;;;;;17.27;5.97;;;;;;;;;;5092372;28;20044;-69
2023/05/20 01:43:17;;;;;;;16.55;5.93;;;;;;;;;;5092552;28;20177;-69
2023/05/20 01:45:43;;;;;;;12.45;5.15;;;;;;;;;;5092452;28;20043;-69
2023/05/20 01:48:10;;;;;;;15.07;5.28;;;11.70;99.90;;;;;;5092625;28;20383;-69
2023/05/20 01:50:37;;;;;;;11.00;5.88;;;;;;;;;;5075495;28;20048;-69
2023/05/20 01:53:03;;;;;;;15.18;5.50;;;;;;;;;;5092083;28;20043;-69
2023/05/20 01:55:29;;;;;;;12.93;5.43;;;;;;;;;;5092529;28;20052;-69
2023/05/20 01:57:55;;;;;;;12.50;5.78;;;;;;;;;;5092227;28;20048;-69
2023/05/20 02:00:21;;;;;;;11.68;5.63;;;;;;;;;;5092144;28;20519;-69
2023/05/20 02:02:47;;;;;;;15.65;6.10;;;;;;;;;;5092171;28;20036;-69
2023/05/20 02:05:13;;;;;;;13.60;5.47;;;10.50;99.90;;;;;;5091947;28;20052;-69
2023/05/20 02:07:39;;;;;;;14.13;6.30;;;10.50;99.90;;;;;;5092083;28;20040;-69
2023/05/20 02:10:05;;;;;;;16.02;5.45;;;10.40;99.90;;;;;;5058717;28;20051;-69
2023/05/20 02:12:31;;;;;;;14.88;5.93;;;;;;;;;;5091973;28;20480;-69
2023/05/20 02:14:57;;;;;;;15.70;6.45;;;12.50;99.90;;;;;;5092161;28;20047;-69
2023/05/20 02:17:23;;;;;;;15.05;6.13;;;;;;;;;;5091969;28;20040;-69
2023/05/20 02:19:49;;;;;;;17.15;6.10;;;;;;;;;;5092214;28;20040;-69
2023/05/20 02:22:15;;;;;;;17.77;6.05;;;;;;;;;;5091983;28;20136;-69
2023/05/20 02:24:42;;;;;;;13.45;6.07;;;;;;;;;;5109063;28;20036;-69
2023/05/20 02:27:08;;;;;;;13.57;5.57;;;;;;;;;;5092032;28;20039;-69
2023/05/20 02:29:34;;;;;;;14.65;5.68;;;;;;;;;;5092695;28;20039;-69
2023/05/20 02:32:00;;;;;;;13.95;5.80;;;;;;;;;;5079185;28;20139;-69
2023/05/20 02:34:28;;;;;;;11.40;5.35;;;;;;;;;;5096160;28;20483;-69
2023/05/20 02:36:55;;;;;;;13.68;5.72;;;;;;;;;;5079377;28;20105;-69
2023/05/20 02:39:21;;;;;;;12.23;5.15;;;;;;;;;;5095884;28;20040;-69
2023/05/20 02:41:48;;;;;;;13.98;5.70;;;;;;;;;;5095937;28;20036;-69
2023/05/20 02:44:15;;;;;;;13.80;6.13;;;;;;;;;;5096057;28;20040;-69
2023/05/20 02:46:41;;;;;;;10.25;5.38;;;;;;;;;;5096062;28;20072;-69
2023/05/20 02:49:07;;;;;;;11.20;5.53;;;;;;;;;;5096114;28;20043;-69
2023/05/20 02:51:33;;;;;;;10.57;5.90;;;;;;;;;;5095912;28;20394;-69
2023/05/20 02:53:59;;;;;;;16.60;5.40;;;;;;;;;;5095851;28;20036;-69
2023/05/20 02:56:25;;;;;;;11.98;5.28;;;;;;;;;;5078604;28;20039;-69
2023/05/20 02:58:52;;;;;;;10.55;5.13;;;;;;;;;;5095714;28;20083;-69
2023/05/20 03:01:18;;;;;;;17.98;5.82;;;;;;;;;;5095346;28;20036;-69
2023/05/20 03:03:44;;;;;;;16.38;6.03;;;;;;;;;;5095680;28;20039;-69
2023/05/20 03:06:10;;;;;;;12.45;5.95;;;;;;;;;;5078347;28;20044;-69
2023/05/20 03:08:38;;;;;;;17.00;6.80;;;;;;;;;;5095612;28;20051;-69
2023/05/20 03:11:04;;;;;;;8.95;5.55;;;;;;;;;;5095521;28;20123;-69
2023/05/20 03:13:30;;;;;;;12.07;5.38;;;;;;;;;;5095501;28;20040;-69
2023/05/20 03:15:57;;;;;;;8.80;4.93;;;;;;;;;;5095175;28;20051;-69
2023/05/20 03:18:23;;;;;;;15.43;5.30;;;;;;;;;;5095432;28;20346;-69
2023/05/20 03:20:49;;;;;;;11.82;5.53;;;;;;;;;;5094858;28;20054;-69
2023/05/20 03:23:15;;;;;;;11.18;4.85;;;;;;;;;;5078169;28;20089;-69
2023/05/20 03:25:41;;;;;;;8.10;4.88;;;;;;;;;;5078081;28;20119;-69
2023/05/20 03:28:07;;;;;;;12.98;5.00;;;;;;;;;;5094814;28;20039;-69
2023/05/20 03:30:33;;;;;;;15.85;5.35;;;;;;;;;;5094772;28;20074;-69
2023/05/20 03:33:01;;;;;;;10.82;4.90;;;;;;;;;;5094768;28;20472;-69
2023/05/20 03:35:28;;;;;;;8.02;4.82;;;;;;;;;;5094852;28;20052;-69
2023/05/20 03:37:54;;;;;;;10.48;4.97;;;;;;;;;;5094891;28;20097;-69
2023/05/20 03:40:20;;;;;;;12.10;4.70;;;;;;;;;;5094556;28;20507;-69
2023/05/20 03:42:46;;;;;;;9.07;5.00;;;;;;;;;;5093655;28;20071;-69
2023/05/20 03:45:12;;;;;;;15.25;5.03;;;12.00;99.90;;;;;;5094786;28;20032;-69
2023/05/20 03:47:38;;;;;;;8.52;4.70;;;;;;;;;;5094776;28;20156;-69
2023/05/20 03:50:05;;;;;;;6.47;4.40;;;;;;;;;;5112024;28;20040;-69
2023/05/20 03:52:31;;;;;;;11.65;4.78;;;;;;;;;;5094637;28;20531;-69
2023/05/20 03:54:57;;;;;;;12.55;4.85;;;;;;;;;;5094511;28;20123;-69
2023/05/20 03:57:23;;;;;;;11.32;4.80;;;;;;;;;;5094468;28;20078;-69
2023/05/20 03:59:50;;;;;;;10.07;3.97;;;;;;;;;;5094353;28;20051;-69
2023/05/20 04:02:16;;;;;;;10.07;4.15;;;;;;;;;;5094327;28;20044;-69
2023/05/20 04:04:42;;;;;;;11.82;4.95;;;;;;;;;;5094163;28;20059;-69
2023/05/20 04:07:09;;;;;;;9.20;4.13;;;;;;;;;;5093952;28;20052;-69
2023/05/20 04:09:36;;;;;;;10.65;4.30;;;;;;;;;;5094477;28;20066;-69
2023/05/20 04:12:02;;;;;;;6.68;4.20;;;;;;;;;;5094084;28;20050;-69
2023/05/20 04:14:28;;;;;;;6.55;3.97;;;;;;;;;;5094112;28;20051;-69
2023/05/20 04:16:55;;;;;;;9.70;3.90;;;;;;;;;;5093937;28;20040;-69
2023/05/20 04:19:22;;;;;;;6.32;3.90;;;;;;;;;;5077249;28;20458;-69
2023/05/20 04:21:49;;;;;;;10.10;3.53;;;;;;;;;;5093830;28;20044;-69
2023/05/20 04:24:15;;;;;;;10.38;3.90;;;;;;;;;;5077250;28;20122;-69
2023/05/20 04:26:41;;;;;;;12.63;3.67;;;;;;;;;;5093800;28;20101;-69
2023/05/20 04:29:08;;;;;;;8.95;3.28;;;;;;;;;;5077138;28;20047;-69
2023/05/20 04:31:34;;;;;;;6.05;3.05;;;;;;;;;;5093828;28;20040;-69
2023/05/20 04:34:01;;;;;;;8.57;3.40;;;;;;;;;;5093735;28;20048;-69
2023/05/20 04:36:27;;;;;;;5.03;2.67;;;;;;;;;;5093571;28;20044;-69
2023/05/20 04:38:54;;;;;;;6.63;2.90;;;11.20;99.90;;;;;;5093745;28;20046;-69
2023/05/20 04:41:20;;;;;;;6.70;3.50;;;;;;;;;;5093658;28;20176;-69
2023/05/20 04:43:46;;;;;;;6.38;2.90;;;;;;;;;;5093788;28;20391;-69
2023/05/20 04:46:12;;;;;;;5.63;2.80;;;;;;;;;;5093739;28;20051;-69
2023/05/20 04:48:39;;;;;;;7.07;3.50;;;;;;;;;;5094702;28;20126;-69
2023/05/20 04:51:05;;;;;;;7.18;3.00;;;;;;;;;;5093198;28;20036;-69
2023/05/20 04:53:32;;;;;;;7.60;3.17;;;;;;;;;;5093039;28;20055;-69
2023/05/20 04:55:58;;;;;;;8.63;3.03;;;;;;;;;;5093783;28;20118;-69
2023/05/20 04:58:25;;;;;;;7.80;2.70;;;;;;;;;;5093403;28;20122;-69
2023/05/20 05:00:51;;;;;;;5.43;2.95;;;11.40;99.90;;;;;;5093113;28;20164;-69
2023/05/20 05:03:17;;;;;;;4.10;2.65;;;;;;;;;;5093137;28;20079;-69
2023/05/20 05:05:43;;;;;;;5.88;2.78;;;;;;;;;;5092965;28;20056;-69
2023/05/20 05:08:13;;;;;;;5.57;2.80;;;;;;;;;;5093143;28;20044;-69
2023/05/20 05:10:39;;;;;;;6.32;2.45;;;;;;;;;;5093052;28;20044;-69
2023/05/20 05:13:06;;;;;;;3.72;2.30;;;;;;;;;;5092991;28;20047;-69
2023/05/20 05:15:32;;;;;;;5.13;2.75;;;;;;;;;;5076118;28;20044;-69
2023/05/20 05:17:58;;;;;;;6.13;2.72;;;;;;;;;;5092913;28;20044;-69
2023/05/20 05:20:24;;;;;;;5.68;2.55;;;;;;;;;;5092979;28;20109;-69
2023/05/20 05:22:50;;;;;;;4.38;2.47;;;;;;;;;;5109838;28;20055;-69
2023/05/20 05:25:16;;;;;;;5.57;2.30;;;;;;;;;;5093009;28;20488;-69
2023/05/20 05:27:48;;;;;;;6.00;2.30;;;;;;;;;;5092699;28;20481;-69
2023/05/20 05:30:13;;;;;;;7.05;2.28;;;11.60;99.90;;;;;;5092555;28;20047;-69
2023/05/20 05:32:39;;;;;;;3.85;2.65;;;;;;;;;;5076018;28;20040;-69
2023/05/20 05:35:06;;;;;;;5.43;2.17;;;;;;;;;;5092953;28;20044;-69
2023/05/20 05:37:32;;;;;;;4.25;2.35;;;;;;;;;;5092694;28;20032;-69
2023/05/20 05:39:58;;;;;;;4.28;2.15;;;;;;;;;;5075592;28;20047;-69
2023/05/20 05:42:24;;;;;;;2.85;2.00;;;;;;;;;;5092357;28;20076;-69
2023/05/20 05:44:50;;;;;;;4.63;1.95;;;;;;;;;;5092692;28;20043;-69
2023/05/20 05:47:17;;;;;;;3.20;2.33;;;;;;;;;;5092906;28;20434;-69
2023/05/20 05:49:43;;;;;;;5.60;2.20;;;;;;;;;;5075846;28;20067;-69
2023/05/20 05:52:09;;;;;;;4.88;2.40;;;;;;;;;;5092235;28;20047;-69
2023/05/20 05:54:35;;;;;;;4.03;2.63;;;;;;;;;;5092536;28;20047;-69
2023/05/20 05:57:01;;;;;;;3.33;1.90;;;;;;;;;;5126458;27;20046;-69
2023/05/20 05:59:27;;;;;;;4.00;2.05;;;;;;;;;;5109308;28;20564;-69
2023/05/20 06:01:53;;;;;;;3.83;2.33;;;;;;;;;;5092463;28;20040;-69
2023/05/20 06:04:19;;;;;;;5.22;2.80;;;;;;;;;;5074704;28;20045;-69
2023/05/20 06:06:45;;;;;;;8.57;2.33;;;;;;;;;;5092127;28;20052;-69
2023/05/20 06:09:11;;;;;;;3.50;2.03;;;;;;;;;;5109746;28;20039;-69
2023/05/20 06:11:37;;;;;;;5.65;2.15;;;;;;;;;;5092147;28;20123;-69
2023/05/20 06:14:03;;;;;;;2.33;1.90;;;;;;;;;;5075583;28;20376;-69
2023/05/20 06:16:29;;;;;;;4.45;2.00;;;;;;;;;;5092044;28;20073;-69
2023/05/20 06:18:56;;;;;;;3.85;1.85;;;;;;;;;;5092049;28;20077;-69
2023/05/20 06:21:22;;;;;;;2.88;2.00;;;;;;;;;;5109197;28;20127;-69
2023/05/20 06:23:48;;;;;;;3.47;2.00;;;;;;;;;;5092238;28;20051;-69
2023/05/20 06:26:15;;;;;;;5.75;2.20;;;;;;;;;;5091981;28;20039;-70
2023/05/20 06:28:41;;;;;;;3.75;1.88;;;;;;;;;;5092032;28;20043;-69
2023/05/20 06:31:07;;;;;;;4.57;2.08;;;;;;;;;;5091882;28;20047;-69
2023/05/20 06:33:34;;;;;;;3.00;1.80;;;;;;;;;;5091918;28;20123;-69
2023/05/20 06:36:03;;;;;;;2.47;1.90;;;;;;;;;;5092000;28;20080;-69
2023/05/20 06:38:29;;;;;;;4.30;2.05;;;;;;;;;;5091773;28;20495;-69
2023/05/20 06:40:55;;;;;;;3.90;1.95;;;;;;;;;;5091801;28;20075;-69
2023/05/20 06:43:21;;;;;;;4.32;2.00;;;;;;;;;;5091717;28;20044;-69
2023/05/20 06:45:47;;;;;;;4.60;2.33;;;;;;;;;;5075212;28;20061;-69
2023/05/20 06:48:13;;;;;;;3.92;2.00;;;;;;;;;;5075021;28;20047;-69
2023/05/20 06:50:39;;;;;;;2.88;1.70;;;;;;;;;;5109035;28;20388;-69
2023/05/20 06:53:05;;;;;;;3.10;1.45;;;;;;;;;;5091773;28;20043;-69
2023/05/20 06:55:31;;;;;;;6.78;1.77;;;;;;;;;;5074725;28;20051;-69
2023/05/20 06:57:57;;;;;;;7.72;1.95;;;;;;;;;;5091454;28;20036;-68
2023/05/20 07:00:24;;;;;;;4.78;1.90;;;;;;;;;;5091430;28;20377;-69
2023/05/20 07:02:50;;;;;;;2.33;1.60;;;;;;;;;;5091892;28;20036;-69
2023/05/20 07:05:16;;;;;;;2.38;1.63;;;;;;;;;;5074714;28;20078;-69
2023/05/20 07:07:42;;;;;;;6.38;1.85;;;;;;;;;;5091170;28;20054;-69
2023/05/20 07:10:08;;;;;;;3.28;1.70;;;12.90;99.90;;;;;;5091401;28;20123;-69
2023/05/20 07:12:34;;;;;;;2.70;1.90;;;;;;;;;;5091455;28;20139;-69
2023/05/20 07:15:00;;;;;;;3.70;1.77;;;;;;;;;;5091942;28;20043;-69
2023/05/20 07:17:28;;;;;;;5.43;1.70;;;13.10;99.90;;;;;;5095117;28;20127;-69
2023/05/20 07:19:55;;;;;;;4.93;1.73;;;;;;;;;;5095031;28;20377;-69
2023/05/20 07:22:21;;;;;;;2.90;1.80;;;;;;;;;;5095410;28;20081;-69
2023/05/20 07:24:47;;;;;;;6.18;1.95;;;;;;;;;;5095016;28;20040;-69
2023/05/20 07:27:13;;;;;;;4.93;1.70;;;;;;;;;;5112405;27;20040;-69
2023/05/20 07:29:39;;;;;;;2.47;1.63;;;;;;;;;;5112350;27;20040;-69
2023/05/20 07:32:05;;;;;;;5.13;1.80;;;14.50;99.90;;;;;;5095040;28;20051;-69
2023/05/20 07:34:31;;;;;;;4.65;1.92;;;;;;;;;;5094933;28;20044;-69
2023/05/20 07:36:58;;;;;;;3.53;1.90;;;;;;;;;;5094928;28;20397;-69
2023/05/20 07:39:24;;;;;;;3.72;1.98;;;;;;;;;;5094653;28;20133;-69
2023/05/20 07:41:50;;;;;;;6.75;2.00;;;;;;;;;;5094981;28;20468;-69
2023/05/20 07:44:17;;;;;;;3.53;1.70;;;;;;;;;;5094694;28;20044;-69
2023/05/20 07:46:44;;;;;;;3.97;2.00;;;;;;;;;;5094791;28;20048;-70
2023/05/20 07:49:10;;;;;;;6.65;1.92;;;;;;;;;;5077971;28;20496;-69
2023/05/20 07:51:36;;;;;;;4.20;1.80;;;;;;;;;;5095771;28;20082;-69
2023/05/20 07:54:02;;;;;;;3.88;1.70;;;;;;;;;;5094788;28;20047;-69
2023/05/20 07:56:28;;;;;;;7.45;2.08;;;;;;;;;;5077704;28;20488;-69
2023/05/20 07:58:59;;;;;;;4.32;2.03;;;14.50;99.90;;;;;;5094478;28;20048;-69
2023/05/20 08:01:26;;;;;;;3.63;1.60;;;14.70;99.90;;;;;;5094346;28;20051;-69
2023/05/20 08:03:52;;;;;;;5.72;1.80;;;;;;;;;;5077403;28;20032;-69
2023/05/20 08:06:19;;;;;;;5.22;1.98;;;;;;;;;;5077246;28;20056;-69
2023/05/20 08:08:45;;;;;;;4.57;2.00;;;;;;;;;;5094291;28;20083;-69
2023/05/20 08:11:11;;;;;;;6.22;1.98;;;;;;;;;;5094318;28;20044;-69
2023/05/20 08:13:37;;;;;;;4.88;1.95;;;;;;;;;;5094214;28;20040;-69
2023/05/20 08:16:04;;;;;;;5.40;1.80;;;15.70;99.90;;;;;;5128012;27;20491;-69
2023/05/20 08:18:31;;;;;;;4.88;1.75;;;;;;;;;;5094190;28;20058;-69
2023/05/20 08:20:58;;;;;;;3.78;1.80;;;;;;;;;;5094123;28;20040;-69
2023/05/20 08:23:24;;;;;;;3.67;1.80;;;;;;;;;;5093879;28;20504;-69
2023/05/20 08:25:50;;;;;;;3.53;1.77;;;;;;;;;;5094369;28;20508;-69
2023/05/20 08:28:17;;;;;;;4.50;1.65;;;;;;;;;;5127359;27;20043;-69
2023/05/20 08:30:43;;;;;;;6.38;1.70;;;;;;;;;;5093730;28;20100;-68
2023/05/20 08:33:09;;;;;;;5.13;1.75;;;;;;;;;;5110819;28;20043;-69
2023/05/20 08:35:38;;;;;;;2.47;1.52;;;;;;;;;;5093798;28;20044;-69
2023/05/20 08:38:04;;;;;;;8.27;1.90;;;;;;;;;;5093809;28;20124;-69
2023/05/20 08:40:30;;;;;;;8.35;1.40;;;15.60;99.90;;;;;;5093483;28;20507;-69
2023/05/20 08:42:58;;;;;;;4.53;1.70;;;15.10;99.90;;;;;;5093845;28;20040;-69
2023/05/20 08:45:27;;;;;;;4.57;1.60;;;;;;;;;;5093543;28;20145;-69
2023/05/20 08:47:53;;;;;;;3.72;1.35;;;;;;;;;;5076733;28;20093;-69
2023/05/20 08:50:20;;;;;;;3.42;1.20;;;15.70;99.90;;;;;;5093441;28;20046;-69
2023/05/20 08:52:50;;;;;;;4.30;1.67;;;;;;;;;;5076519;28;20189;-69
2023/05/20 08:55:42;;;;;;;7.65;2.25;;;15.70;99.90;;;;;;5093349;28;20088;-69
2023/05/20 08:58:09;;;;;;;4.38;1.95;;;;;;;;;;5093251;28;20047;-69
2023/05/20 09:00:36;;;;;;;3.47;1.60;;;;;;;;;;5093202;28;20069;-69
2023/05/20 09:03:03;;;;;;;5.10;1.50;;;;;;;;;;5093624;28;20077;-69
2023/05/20 09:05:29;;;;;;;3.35;1.45;;;;;;;;;;5093483;28;20040;-70
2023/05/20 09:08:05;;;;;;;4.93;1.63;;;;;;;;;;5093135;28;20397;-69
2023/05/20 09:10:32;;;;;;;5.05;1.67;;;15.70;99.90;;;;;;5093049;28;20065;-69
2023/05/20 09:13:00;;;;;;;3.03;1.52;;;15.90;99.90;;;;;;5093063;28;20514;-69
2023/05/20 09:15:26;;;;;;;2.35;1.20;;;;;;;;;;5092937;28;20539;-69
2023/05/20 09:17:52;;;;;;;4.80;1.40;;;16.40;99.90;;;;;;5093266;28;20337;-69
2023/05/20 09:20:21;;;;;;;5.00;1.63;;;17.00;99.90;;;;;;5075967;28;20047;-69
2023/05/20 09:22:47;;;;;;;5.10;1.50;;;;;;;;;;5092818;28;20039;-69
2023/05/20 09:25:13;;;;;;;3.25;1.50;;;;;;;;;;5093189;28;20031;-68
2023/05/20 09:27:39;;;;;;;3.40;1.55;;;;;;;;;;5092874;28;20036;-69
2023/05/20 09:30:11;;;;;;;5.95;1.73;;;15.70;99.90;;;;;;5075776;28;20138;-68
2023/05/20 09:32:37;;;;;;;9.45;2.00;;;;;;;;;;5093040;28;20050;-68
2023/05/20 09:35:05;;;;;;;6.68;1.90;;;17.50;99.90;;;;;;5092993;28;20135;-69
2023/05/20 09:37:34;;;;;;;5.57;2.17;;;16.90;99.90;;;;;;5092736;28;20083;-69
2023/05/20 09:40:03;;;;;;;4.30;1.48;;;17.00;99.90;;;;;;5092652;28;20059;-69
2023/05/20 09:42:52;;;;;;;7.70;1.67;;;16.80;99.90;;;;;;5092627;28;20060;-68
2023/05/20 09:45:18;;;;;;;7.53;1.80;;;;;;;;;;5092421;28;20047;-68
2023/05/20 09:47:44;;;;;;;7.18;1.77;;;17.60;99.90;;;;;;5092384;28;20040;-69
2023/05/20 09:50:11;;;;;;;5.70;1.90;;;;;;;;;;5092161;28;20095;-69
2023/05/20 09:52:38;;;;;;;6.72;2.15;;;17.70;99.90;;;;;;5075277;28;20043;-69
2023/05/20 09:55:11;;;;;;;4.68;1.73;;;16.80;99.90;;;;;;5075887;28;20460;-69
2023/05/20 09:57:37;;;;;;;4.53;2.15;;;;;;;;;;5092159;28;20093;-68
2023/05/20 10:00:05;;;;;;;8.55;1.90;;;17.30;99.90;;;;;;5092329;28;20097;-69
2023/05/20 10:02:33;;;;;;;4.15;1.83;;;17.40;99.90;;;;;;5092313;28;20094;-69
2023/05/20 10:05:04;;;;;;;4.00;1.58;;;16.50;99.90;;;;;;5075317;28;20047;-69
2023/05/20 10:07:55;;;;;;;6.85;1.90;;;17.30;99.90;;;;;;5092010;28;20055;-69
2023/05/20 10:10:47;;;;;;;4.15;1.80;;;16.40;99.90;;;;;;5092514;28;20397;-69
2023/05/20 10:13:29;;;;;;;4.57;1.98;;;17.70;99.90;;;;;;5092065;28;20040;-69
2023/05/20 10:15:55;;;;;;;6.45;2.25;;;;;;;;;;5092495;28;20118;-68
2023/05/20 10:18:39;;;;;;;6.57;1.92;;;17.50;99.90;;;;;;5092114;28;20058;-69
2023/05/20 10:21:17;;;;;;;10.13;2.10;;;17.60;99.90;;;;;;5091887;28;20090;-69
2023/05/20 10:23:44;;;;;;;6.13;2.28;;;;;;;;;;5093124;28;20036;-69
2023/05/20 10:26:10;;;;;;;7.45;2.10;;;;;;;;;;5092008;28;20399;-68
2023/05/20 10:28:39;;;;;;;6.05;2.20;;;17.70;99.90;;;;;;5091988;28;20044;-68
2023/05/20 10:31:20;;;;;;;5.82;2.05;;;17.60;99.90;;;;;;5091787;28;20055;-68
2023/05/20 10:33:46;;;;;;;6.10;2.30;;;17.80;99.90;;;;;;5109936;28;20498;-68
2023/05/20 10:36:26;;;;;;;6.70;2.70;;;18.00;99.90;;;;;;5091677;28;20044;-69
2023/05/20 10:38:58;;;;;;;10.35;2.00;;;17.90;99.90;;;;;;5092372;28;20395;-69
2023/05/20 10:41:27;;;;;;;;;;;18.10;99.90;;;;;;5058665;28;20476;-69
2023/05/20 10:44:06;;;;;;;6.10;2.10;;;17.60;99.90;;;;;;5125862;27;19916;-69
2023/05/20 10:46:33;;;;;;;5.55;1.90;;;18.80;99.90;;;;;;5091696;28;20032;-69
2023/05/20 10:49:01;;;;;;;4.95;1.92;;;18.30;99.90;;;;;;5092077;28;20415;-69
2023/05/20 10:51:30;;;;;;;11.75;1.92;;;18.20;99.90;;;;;;5093945;28;20510;-69
2023/05/20 10:53:56;;;;;;;5.53;1.80;;;;;;;;;;5095807;28;20055;-69
2023/05/20 10:56:24;;;;;;;5.07;2.20;;;19.50;99.90;;;;;;5095583;28;20079;-69
2023/05/20 10:58:52;;;;;;;3.95;2.13;;;18.80;99.90;;;;;;5095912;28;20048;-69
2023/05/20 11:01:18;;;;;;;7.47;2.00;;;;;;;;;;5095593;28;20043;-69
2023/05/20 11:03:48;;;;;;;8.55;2.10;;;19.20;99.90;;;;;;5096981;28;20036;-69
2023/05/20 11:06:17;;;;;;;7.18;2.30;;;18.90;99.90;;;;;;5095421;28;20060;-69
2023/05/20 11:08:44;;;;;;;5.38;1.83;;;19.00;99.90;;;;;;5079166;28;20036;-69
2023/05/20 11:11:14;;;;;;;8.23;2.08;;;18.70;99.90;;;;;;5095683;28;20047;-69
2023/05/20 11:13:40;;;;;;;5.72;2.30;;;18.10;99.90;;;;;;5095349;28;20476;-69
2023/05/20 11:16:06;;;;;;;6.20;2.17;;;;;;;;;;5078708;28;20098;-69
2023/05/20 11:18:32;;;;;;;8.30;2.20;;;18.70;99.90;;;;;;5095167;28;20118;-69
2023/05/20 11:20:59;;;;;;;13.25;2.83;;;18.40;99.90;;;;;;5095262;28;20080;-69
2023/05/20 11:23:26;;;;;;;10.02;2.25;;;18.40;99.90;;;;;;5095230;28;20484;-69
2023/05/20 11:25:54;;;;;;;7.00;2.28;;;18.90;99.90;;;;;;5095164;28;20036;-69
2023/05/20 11:28:20;;;;;;;6.18;2.28;;;18.00;99.90;;;;;;5095034;28;20560;-69
2023/05/20 11:30:47;;;;;;;6.80;2.22;;;17.90;99.90;;;;;;5095242;28;20047;-69
2023/05/20 11:33:14;;;;;;;6.38;2.30;;;18.60;99.90;;;;;;5078074;28;20051;-69
2023/05/20 11:35:45;;;;;;;7.70;2.35;;;18.60;99.90;;;;;;5095069;28;20046;-69
2023/05/20 11:38:11;;;;;;;8.52;2.20;;;18.70;99.90;;;;;;5094957;28;20101;-69
2023/05/20 11:40:41;;;;;;;11.50;2.65;;;18.10;99.90;;;;;;5094763;28;20036;-69
2023/05/20 11:43:10;;;;;;;8.10;2.50;;;18.90;99.90;;;;;;5077924;28;20082;-69
2023/05/20 11:45:45;;;;;;;10.65;2.88;;;18.70;99.90;;;;;;5095031;28;20047;-69
2023/05/20 11:48:13;;;;;;;9.38;2.58;;;18.80;99.90;;;;;;5096119;28;20039;-69
2023/05/20 11:50:40;;;;;;;6.63;2.42;;;19.10;99.90;;;;;;5094742;28;20043;-69
2023/05/20 11:53:08;;;;;;;10.10;2.65;;;18.10;99.90;;;;;;5078031;28;20102;-69
2023/05/20 11:55:45;;;;;;;9.77;2.53;;;19.70;99.90;;;;;;5077673;28;20051;-69
2023/05/20 11:58:14;;;;;;;8.60;2.45;;;19.80;99.90;;;;;;5094602;28;20059;-69
2023/05/20 12:00:40;;;;;;;8.80;2.47;;;;;;;;;;5094441;28;20048;-69
2023/05/20 12:03:06;;;;;;;11.38;3.95;;;;;;;;;;5093405;28;20040;-69
2023/05/20 12:05:32;;;;;;;10.57;2.45;;;20.00;99.90;;;;;;5111574;28;20050;-69
2023/05/20 12:07:57;;;;;;;7.40;2.22;;;18.60;99.90;;;;;;5094300;28;20048;-69
2023/05/20 12:10:23;;;;;;;8.25;2.58;;;;;;;;;;5094230;28;20480;-69
2023/05/20 12:12:49;;;;;;;5.30;2.25;;;20.10;99.90;;;;;;5094314;28;20076;-69
2023/05/20 12:15:15;;;;;;;9.32;2.45;;;;;;;;;;5094446;28;20081;-69
2023/05/20 12:17:47;;;;;;;6.70;2.08;;;20.20;99.90;;;;;;5094631;28;20520;-69
2023/05/20 12:20:15;;;;;;;9.90;2.55;;;20.40;99.90;;;;;;5093965;28;20044;-69
2023/05/20 12:22:42;;;;;;;6.63;2.45;;;19.40;99.90;;;;;;5094181;28;20040;-69
2023/05/20 12:25:14;;;;;;;10.57;3.03;;;20.40;99.90;;;;;;5094096;28;20032;-69
2023/05/20 12:27:46;;;;;;;9.30;2.97;;;18.50;99.90;;;;;;5077245;28;20475;-70
2023/05/20 12:30:16;;;;;;;8.77;2.80;;;20.20;99.90;;;;;;5060784;28;20048;-69
2023/05/20 12:32:42;;;;;;;10.73;3.08;;;20.10;99.90;;;;;;5093702;28;20043;-69
2023/05/20 12:35:09;;;;;;;8.27;2.50;;;20.30;99.90;;;;;;5093740;28;20071;-69
2023/05/20 12:37:37;;;;;;;6.32;2.70;;;19.90;99.90;;;;;;5076937;28;20552;-69
2023/05/20 12:40:07;;;;;;;10.02;3.20;;;20.30;99.90;;;;;;5093953;28;20043;-69
2023/05/20 12:42:43;;;;;;;7.97;2.60;;;19.50;99.90;;;;;;5093946;28;20067;-69
2023/05/20 12:45:09;;;;;;;9.68;2.80;;;;;;;;;;5093505;28;20063;-70
2023/05/20 12:47:35;;;;;;;9.88;2.95;;;18.90;99.90;;;;;;5093825;28;20381;-70
2023/05/20 12:50:02;;;;;;;10.43;2.92;;;20.10;99.90;;;;;;5093856;28;20089;-70
2023/05/20 12:52:28;;;;;;;9.43;3.00;;;20.50;99.90;;;;;;5093450;28;20059;-69
2023/05/20 12:54:55;;;;;;;10.73;2.50;;;;;;;;;;5077011;28;20048;-69
2023/05/20 12:57:21;;;;;;;11.57;2.60;;;;;;;;;;5093393;28;20044;-69
2023/05/20 12:59:47;;;;;;;9.63;2.70;;;20.00;99.90;;;;;;5127572;27;20180;-69
2023/05/20 13:02:13;;;;;;;10.70;2.83;;;;;;;;;;5076422;28;20516;-70
2023/05/20 13:04:39;;;;;;;10.60;2.60;;;;;;;;;;5093161;28;20143;-70
2023/05/20 13:07:05;;;;;;;6.95;3.00;;;19.20;99.90;;;;;;5076250;28;20245;-69
2023/05/20 13:09:32;;;;;;;9.18;2.70;;;20.20;99.90;;;;;;5076350;28;20122;-69
2023/05/20 13:11:58;;;;;;;6.68;2.65;;;;;;;;;;5093203;28;20044;-69
2023/05/20 13:14:23;;;;;;;8.85;2.50;;;19.20;99.90;;;;;;5092938;28;20036;-69
2023/05/20 13:16:53;;;;;;;9.98;3.42;;;19.80;99.90;;;;;;5092841;28;20058;-69
2023/05/20 13:19:20;;;;;;;9.05;2.97;;;20.30;99.90;;;;;;5092904;28;20094;-69
2023/05/20 13:21:47;;;;;;;7.72;2.80;;;20.40;99.90;;;;;;5075872;28;20376;-69
2023/05/20 13:24:13;;;;;;;8.05;3.05;;;;;;;;;;5075924;28;20032;-69
2023/05/20 13:26:40;;;;;;;7.80;2.92;;;;;;;;;;5092628;28;20039;-69
2023/05/20 13:29:06;;;;;;;6.68;2.90;;;20.60;99.90;;;;;;5075951;28;20058;-69
2023/05/20 13:31:32;;;;;;;9.85;3.67;;;20.50;99.90;;;;;;5092936;28;20052;-70
2023/05/20 13:33:59;;;;;;;10.95;2.88;;;20.70;99.90;;;;;;5092626;28;20036;-69
2023/05/20 13:36:25;;;;;;;6.88;2.92;;;20.10;99.90;;;;;;5094102;28;20055;-70
2023/05/20 13:38:51;;;;;;;9.90;3.15;;;19.80;99.90;;;;;;5092816;28;20039;-70
2023/05/20 13:41:17;;;;;;;8.45;2.90;;;;;;;;;;5092422;28;20044;-70
2023/05/20 13:43:43;;;;;;;9.73;3.45;;;20.60;99.90;;;;;;5092684;28;20074;-70
2023/05/20 13:46:09;;;;;;;7.22;3.28;;;;;;;;;;5092798;28;20076;-70
2023/05/20 13:48:35;;;;;;;8.63;3.33;;;21.00;99.90;;;;;;5092710;28;20048;-69
2023/05/20 13:51:01;;;;;;;8.18;3.38;;;;;;;;;;5092443;28;20046;-70
2023/05/20 13:53:27;;;;;;;9.13;3.63;;;;;;;;;;5092332;28;20135;-70
2023/05/20 13:55:53;;;;;;;7.60;3.33;;;19.80;99.90;;;;;;5092747;28;20039;-70